sensor_id;sensor_type;location;lat;lon;timestamp;P1;durP1;ratioP1;P2;durP2;ratioP2
19735;SDS011;32064;49.310;8.646;2022-09-25T00:01:21;6.95;;;4.93;;
19735;SDS011;32064;49.310;8.646;2022-09-25T00:03:48;4.38;;;3.58;;
19735;SDS011;32064;49.310;8.646;2022-09-25T00:06:17;5.80;;;4.30;;
19735;SDS011;32064;49.310;8.646;2022-09-25T00:08:47;5.32;;;3.83;;
19735;SDS011;32064;49.310;8.646;2022-09-25T00:11:13;4.55;;;3.53;;
19735;SDS011;32064;49.310;8.646;2022-09-25T00:13:43;3.83;;;3.05;;
19735;SDS011;32064;49.310;8.646;2022-09-25T00:16:10;5.28;;;3.28;;
19735;SDS011;32064;49.310;8.646;2022-09-25T00:18:38;3.95;;;2.88;;
19735;SDS011;32064;49.310;8.646;2022-09-25T00:21:22;6.13;;;2.95;;
19735;SDS011;32064;49.310;8.646;2022-09-25T00:23:47;2.92;;;2.47;;
19735;SDS011;32064;49.310;8.646;2022-09-25T00:26:14;3.33;;;2.67;;
19735;SDS011;32064;49.310;8.646;2022-09-25T00:28:41;4.20;;;2.88;;
19735;SDS011;32064;49.310;8.646;2022-09-25T00:31:07;5.25;;;2.85;;
19735;SDS011;32064;49.310;8.646;2022-09-25T00:33:34;6.28;;;2.97;;
19735;SDS011;32064;49.310;8.646;2022-09-25T00:36:00;3.30;;;2.53;;
19735;SDS011;32064;49.310;8.646;2022-09-25T00:38:29;4.22;;;3.00;;
19735;SDS011;32064;49.310;8.646;2022-09-25T00:40:55;4.32;;;3.53;;
19735;SDS011;32064;49.310;8.646;2022-09-25T00:43:41;6.82;;;4.55;;
19735;SDS011;32064;49.310;8.646;2022-09-25T00:46:13;6.53;;;4.88;;
19735;SDS011;32064;49.310;8.646;2022-09-25T00:51:32;6.32;;;4.97;;
19735;SDS011;32064;49.310;8.646;2022-09-25T00:54:02;6.90;;;5.10;;
19735;SDS011;32064;49.310;8.646;2022-09-25T00:56:32;6.32;;;4.57;;
19735;SDS011;32064;49.310;8.646;2022-09-25T00:59:02;6.63;;;4.50;;
19735;SDS011;32064;49.310;8.646;2022-09-25T01:01:30;7.53;;;4.53;;
19735;SDS011;32064;49.310;8.646;2022-09-25T01:03:55;7.25;;;5.00;;
19735;SDS011;32064;49.310;8.646;2022-09-25T01:06:21;8.45;;;5.18;;
19735;SDS011;32064;49.310;8.646;2022-09-25T01:08:50;7.25;;;4.88;;
19735;SDS011;32064;49.310;8.646;2022-09-25T01:11:16;21.92;;;5.50;;
19735;SDS011;32064;49.310;8.646;2022-09-25T01:13:41;7.90;;;5.28;;
19735;SDS011;32064;49.310;8.646;2022-09-25T01:16:22;7.47;;;5.72;;
19735;SDS011;32064;49.310;8.646;2022-09-25T01:21:32;9.63;;;5.50;;
19735;SDS011;32064;49.310;8.646;2022-09-25T01:29:26;8.50;;;5.75;;
19735;SDS011;32064;49.310;8.646;2022-09-25T01:34:38;9.77;;;5.32;;
19735;SDS011;32064;49.310;8.646;2022-09-25T01:37:14;8.45;;;5.35;;
19735;SDS011;32064;49.310;8.646;2022-09-25T01:39:53;6.75;;;4.80;;
19735;SDS011;32064;49.310;8.646;2022-09-25T01:42:26;6.43;;;5.00;;
19735;SDS011;32064;49.310;8.646;2022-09-25T01:45:07;6.97;;;4.93;;
19735;SDS011;32064;49.310;8.646;2022-09-25T01:47:40;7.55;;;4.90;;
19735;SDS011;32064;49.310;8.646;2022-09-25T01:50:15;7.30;;;4.68;;
19735;SDS011;32064;49.310;8.646;2022-09-25T01:52:49;6.88;;;4.68;;
19735;SDS011;32064;49.310;8.646;2022-09-25T01:55:20;8.35;;;5.10;;
19735;SDS011;32064;49.310;8.646;2022-09-25T01:57:52;7.82;;;5.25;;
19735;SDS011;32064;49.310;8.646;2022-09-25T02:00:26;7.22;;;4.97;;
19735;SDS011;32064;49.310;8.646;2022-09-25T02:02:56;8.90;;;4.78;;
19735;SDS011;32064;49.310;8.646;2022-09-25T02:05:26;7.65;;;5.00;;
19735;SDS011;32064;49.310;8.646;2022-09-25T02:07:59;7.70;;;5.43;;
19735;SDS011;32064;49.310;8.646;2022-09-25T02:10:34;10.45;;;5.72;;
19735;SDS011;32064;49.310;8.646;2022-09-25T02:13:05;9.88;;;5.15;;
19735;SDS011;32064;49.310;8.646;2022-09-25T02:15:57;9.20;;;6.20;;
19735;SDS011;32064;49.310;8.646;2022-09-25T02:18:40;7.88;;;5.63;;
19735;SDS011;32064;49.310;8.646;2022-09-25T02:21:30;10.75;;;6.22;;
19735;SDS011;32064;49.310;8.646;2022-09-25T02:26:41;8.13;;;5.80;;
19735;SDS011;32064;49.310;8.646;2022-09-25T02:29:07;11.45;;;5.97;;
19735;SDS011;32064;49.310;8.646;2022-09-25T02:31:36;9.52;;;6.43;;
19735;SDS011;32064;49.310;8.646;2022-09-25T02:34:06;10.07;;;5.93;;
19735;SDS011;32064;49.310;8.646;2022-09-25T02:36:34;7.88;;;6.05;;
19735;SDS011;32064;49.310;8.646;2022-09-25T02:39:00;8.57;;;6.18;;
19735;SDS011;32064;49.310;8.646;2022-09-25T02:55:31;10.95;;;7.22;;
19735;SDS011;32064;49.310;8.646;2022-09-25T03:01:02;9.88;;;7.63;;
19735;SDS011;32064;49.310;8.646;2022-09-25T03:03:30;13.85;;;7.65;;
19735;SDS011;32064;49.310;8.646;2022-09-25T03:05:56;10.60;;;7.78;;
19735;SDS011;32064;49.310;8.646;2022-09-25T03:08:22;10.25;;;7.53;;
19735;SDS011;32064;49.310;8.646;2022-09-25T03:11:02;9.88;;;7.10;;
19735;SDS011;32064;49.310;8.646;2022-09-25T03:13:29;12.65;;;7.40;;
19735;SDS011;32064;49.310;8.646;2022-09-25T03:15:57;12.65;;;6.95;;
19735;SDS011;32064;49.310;8.646;2022-09-25T03:18:25;10.45;;;6.97;;
19735;SDS011;32064;49.310;8.646;2022-09-25T03:20:52;11.85;;;7.55;;
19735;SDS011;32064;49.310;8.646;2022-09-25T03:23:18;9.95;;;6.47;;
19735;SDS011;32064;49.310;8.646;2022-09-25T03:25:44;11.07;;;7.30;;
19735;SDS011;32064;49.310;8.646;2022-09-25T03:28:11;11.98;;;7.43;;
19735;SDS011;32064;49.310;8.646;2022-09-25T03:30:38;12.00;;;7.30;;
19735;SDS011;32064;49.310;8.646;2022-09-25T03:33:08;11.70;;;7.22;;
19735;SDS011;32064;49.310;8.646;2022-09-25T03:35:35;10.00;;;7.30;;
19735;SDS011;32064;49.310;8.646;2022-09-25T03:38:13;9.93;;;6.95;;
19735;SDS011;32064;49.310;8.646;2022-09-25T03:40:38;10.73;;;7.00;;
19735;SDS011;32064;49.310;8.646;2022-09-25T03:43:04;10.90;;;6.70;;
19735;SDS011;32064;49.310;8.646;2022-09-25T03:45:29;11.18;;;6.80;;
19735;SDS011;32064;49.310;8.646;2022-09-25T03:47:55;10.88;;;7.40;;
19735;SDS011;32064;49.310;8.646;2022-09-25T03:50:20;10.13;;;7.03;;
19735;SDS011;32064;49.310;8.646;2022-09-25T03:52:45;9.85;;;6.90;;
19735;SDS011;32064;49.310;8.646;2022-09-25T03:55:11;10.35;;;6.63;;
19735;SDS011;32064;49.310;8.646;2022-09-25T03:57:37;11.35;;;7.05;;
19735;SDS011;32064;49.310;8.646;2022-09-25T04:00:03;10.68;;;6.63;;
19735;SDS011;32064;49.310;8.646;2022-09-25T04:02:30;10.00;;;6.28;;
19735;SDS011;32064;49.310;8.646;2022-09-25T04:04:55;7.73;;;5.70;;
19735;SDS011;32064;49.310;8.646;2022-09-25T04:07:21;9.98;;;6.00;;
19735;SDS011;32064;49.310;8.646;2022-09-25T04:09:47;9.93;;;5.43;;
19735;SDS011;32064;49.310;8.646;2022-09-25T04:12:13;9.27;;;5.40;;
19735;SDS011;32064;49.310;8.646;2022-09-25T04:14:38;8.82;;;5.78;;
19735;SDS011;32064;49.310;8.646;2022-09-25T04:17:04;8.65;;;5.35;;
19735;SDS011;32064;49.310;8.646;2022-09-25T04:19:30;8.83;;;5.83;;
19735;SDS011;32064;49.310;8.646;2022-09-25T04:21:55;9.07;;;5.78;;
19735;SDS011;32064;49.310;8.646;2022-09-25T04:24:20;7.55;;;5.68;;
19735;SDS011;32064;49.310;8.646;2022-09-25T04:27:04;7.80;;;5.60;;
19735;SDS011;32064;49.310;8.646;2022-09-25T04:29:30;9.13;;;5.40;;
19735;SDS011;32064;49.310;8.646;2022-09-25T04:31:56;9.40;;;5.93;;
19735;SDS011;32064;49.310;8.646;2022-09-25T04:34:40;9.25;;;5.32;;
19735;SDS011;32064;49.310;8.646;2022-09-25T04:37:05;9.93;;;6.53;;
19735;SDS011;32064;49.310;8.646;2022-09-25T04:39:31;8.80;;;5.15;;
19735;SDS011;32064;49.310;8.646;2022-09-25T04:41:56;11.60;;;4.85;;
19735;SDS011;32064;49.310;8.646;2022-09-25T04:44:21;7.63;;;4.65;;
19735;SDS011;32064;49.310;8.646;2022-09-25T04:46:47;6.90;;;4.60;;
19735;SDS011;32064;49.310;8.646;2022-09-25T04:49:12;6.55;;;4.40;;
19735;SDS011;32064;49.310;8.646;2022-09-25T04:51:38;7.88;;;4.15;;
19735;SDS011;32064;49.310;8.646;2022-09-25T04:54:03;7.57;;;4.43;;
19735;SDS011;32064;49.310;8.646;2022-09-25T04:56:28;5.27;;;4.00;;
19735;SDS011;32064;49.310;8.646;2022-09-25T04:58:54;5.25;;;3.50;;
19735;SDS011;32064;49.310;8.646;2022-09-25T05:01:19;4.90;;;3.90;;
19735;SDS011;32064;49.310;8.646;2022-09-25T05:03:48;6.37;;;3.80;;
19735;SDS011;32064;49.310;8.646;2022-09-25T05:06:17;5.82;;;4.28;;
19735;SDS011;32064;49.310;8.646;2022-09-25T05:08:43;6.38;;;4.57;;
19735;SDS011;32064;49.310;8.646;2022-09-25T05:11:08;6.63;;;4.90;;
19735;SDS011;32064;49.310;8.646;2022-09-25T05:13:34;7.78;;;4.78;;
19735;SDS011;32064;49.310;8.646;2022-09-25T05:15:59;7.18;;;4.72;;
19735;SDS011;32064;49.310;8.646;2022-09-25T05:18:25;6.47;;;5.20;;
19735;SDS011;32064;49.310;8.646;2022-09-25T05:20:51;7.53;;;5.57;;
19735;SDS011;32064;49.310;8.646;2022-09-25T05:23:20;7.67;;;5.80;;
19735;SDS011;32064;49.310;8.646;2022-09-25T05:25:50;7.67;;;5.40;;
19735;SDS011;32064;49.310;8.646;2022-09-25T05:28:16;6.72;;;5.25;;
19735;SDS011;32064;49.310;8.646;2022-09-25T05:30:42;7.57;;;5.40;;
19735;SDS011;32064;49.310;8.646;2022-09-25T05:33:08;7.43;;;4.40;;
19735;SDS011;32064;49.310;8.646;2022-09-25T05:35:33;7.13;;;4.65;;
19735;SDS011;32064;49.310;8.646;2022-09-25T05:38:00;7.63;;;5.38;;
19735;SDS011;32064;49.310;8.646;2022-09-25T05:40:26;6.63;;;4.60;;
19735;SDS011;32064;49.310;8.646;2022-09-25T05:42:52;6.90;;;4.03;;
19735;SDS011;32064;49.310;8.646;2022-09-25T05:45:19;5.38;;;4.35;;
19735;SDS011;32064;49.310;8.646;2022-09-25T05:47:45;6.07;;;4.53;;
19735;SDS011;32064;49.310;8.646;2022-09-25T05:50:12;6.30;;;4.38;;
19735;SDS011;32064;49.310;8.646;2022-09-25T05:52:39;7.55;;;4.43;;
19735;SDS011;32064;49.310;8.646;2022-09-25T05:55:04;6.50;;;4.60;;
19735;SDS011;32064;49.310;8.646;2022-09-25T05:57:31;6.43;;;4.93;;
19735;SDS011;32064;49.310;8.646;2022-09-25T05:59:57;6.38;;;4.70;;
19735;SDS011;32064;49.310;8.646;2022-09-25T06:02:23;5.55;;;4.07;;
19735;SDS011;32064;49.310;8.646;2022-09-25T06:04:49;6.40;;;4.50;;
19735;SDS011;32064;49.310;8.646;2022-09-25T06:07:14;5.13;;;4.40;;
19735;SDS011;32064;49.310;8.646;2022-09-25T06:09:40;6.57;;;4.38;;
19735;SDS011;32064;49.310;8.646;2022-09-25T06:12:08;7.53;;;5.13;;
19735;SDS011;32064;49.310;8.646;2022-09-25T06:14:34;7.35;;;5.40;;
19735;SDS011;32064;49.310;8.646;2022-09-25T06:17:01;6.80;;;4.90;;
19735;SDS011;32064;49.310;8.646;2022-09-25T06:19:26;6.60;;;4.93;;
19735;SDS011;32064;49.310;8.646;2022-09-25T06:21:54;5.82;;;4.80;;
19735;SDS011;32064;49.310;8.646;2022-09-25T06:24:21;5.70;;;4.10;;
19735;SDS011;32064;49.310;8.646;2022-09-25T06:26:47;6.10;;;4.20;;
19735;SDS011;32064;49.310;8.646;2022-09-25T06:29:12;6.35;;;4.40;;
19735;SDS011;32064;49.310;8.646;2022-09-25T06:31:38;5.47;;;4.28;;
19735;SDS011;32064;49.310;8.646;2022-09-25T06:34:03;7.65;;;4.15;;
19735;SDS011;32064;49.310;8.646;2022-09-25T06:36:29;5.07;;;3.78;;
19735;SDS011;32064;49.310;8.646;2022-09-25T06:38:56;7.10;;;5.30;;
19735;SDS011;32064;49.310;8.646;2022-09-25T06:41:22;5.38;;;4.13;;
19735;SDS011;32064;49.310;8.646;2022-09-25T06:43:48;6.40;;;4.70;;
19735;SDS011;32064;49.310;8.646;2022-09-25T06:46:14;7.25;;;5.32;;
19735;SDS011;32064;49.310;8.646;2022-09-25T06:48:39;8.98;;;6.05;;
19735;SDS011;32064;49.310;8.646;2022-09-25T06:51:05;6.63;;;5.30;;
19735;SDS011;32064;49.310;8.646;2022-09-25T06:53:32;7.35;;;5.10;;
19735;SDS011;32064;49.310;8.646;2022-09-25T06:55:58;7.37;;;5.03;;
19735;SDS011;32064;49.310;8.646;2022-09-25T06:58:24;8.90;;;5.03;;
19735;SDS011;32064;49.310;8.646;2022-09-25T07:00:52;7.25;;;4.32;;
19735;SDS011;32064;49.310;8.646;2022-09-25T07:03:18;6.90;;;4.97;;
19735;SDS011;32064;49.310;8.646;2022-09-25T07:06:03;6.87;;;4.93;;
19735;SDS011;32064;49.310;8.646;2022-09-25T07:08:31;7.68;;;5.32;;
19735;SDS011;32064;49.310;8.646;2022-09-25T07:10:57;6.75;;;5.40;;
19735;SDS011;32064;49.310;8.646;2022-09-25T07:13:24;5.97;;;4.53;;
19735;SDS011;32064;49.310;8.646;2022-09-25T07:15:53;6.93;;;4.73;;
19735;SDS011;32064;49.310;8.646;2022-09-25T07:18:22;6.00;;;4.65;;
19735;SDS011;32064;49.310;8.646;2022-09-25T07:20:49;6.20;;;4.32;;
19735;SDS011;32064;49.310;8.646;2022-09-25T07:23:16;5.75;;;4.50;;
19735;SDS011;32064;49.310;8.646;2022-09-25T07:25:43;6.53;;;4.82;;
19735;SDS011;32064;49.310;8.646;2022-09-25T07:28:09;11.10;;;5.95;;
19735;SDS011;32064;49.310;8.646;2022-09-25T07:30:38;9.40;;;5.70;;
19735;SDS011;32064;49.310;8.646;2022-09-25T07:33:04;8.25;;;5.32;;
19735;SDS011;32064;49.310;8.646;2022-09-25T07:35:29;12.48;;;6.20;;
19735;SDS011;32064;49.310;8.646;2022-09-25T07:37:55;10.77;;;6.80;;
19735;SDS011;32064;49.310;8.646;2022-09-25T07:40:21;7.38;;;5.55;;
19735;SDS011;32064;49.310;8.646;2022-09-25T07:42:47;9.40;;;5.60;;
19735;SDS011;32064;49.310;8.646;2022-09-25T07:45:12;8.10;;;6.03;;
19735;SDS011;32064;49.310;8.646;2022-09-25T07:47:38;11.98;;;6.70;;
19735;SDS011;32064;49.310;8.646;2022-09-25T07:50:03;8.43;;;6.03;;
19735;SDS011;32064;49.310;8.646;2022-09-25T07:52:29;9.10;;;6.20;;
19735;SDS011;32064;49.310;8.646;2022-09-25T07:54:54;9.68;;;7.43;;
19735;SDS011;32064;49.310;8.646;2022-09-25T07:57:20;10.73;;;6.90;;
19735;SDS011;32064;49.310;8.646;2022-09-25T07:59:46;10.57;;;7.05;;
19735;SDS011;32064;49.310;8.646;2022-09-25T08:02:11;8.52;;;6.20;;
19735;SDS011;32064;49.310;8.646;2022-09-25T08:04:37;9.83;;;6.43;;
19735;SDS011;32064;49.310;8.646;2022-09-25T08:07:02;8.95;;;6.45;;
19735;SDS011;32064;49.310;8.646;2022-09-25T08:09:28;9.00;;;5.65;;
19735;SDS011;32064;49.310;8.646;2022-09-25T08:11:54;9.70;;;5.68;;
19735;SDS011;32064;49.310;8.646;2022-09-25T08:14:19;9.80;;;6.38;;
19735;SDS011;32064;49.310;8.646;2022-09-25T08:16:46;7.97;;;5.55;;
19735;SDS011;32064;49.310;8.646;2022-09-25T08:19:12;7.20;;;4.95;;
19735;SDS011;32064;49.310;8.646;2022-09-25T08:21:41;6.32;;;4.75;;
19735;SDS011;32064;49.310;8.646;2022-09-25T08:24:08;5.95;;;4.50;;
19735;SDS011;32064;49.310;8.646;2022-09-25T08:26:34;6.05;;;4.70;;
19735;SDS011;32064;49.310;8.646;2022-09-25T08:29:00;6.78;;;4.50;;
19735;SDS011;32064;49.310;8.646;2022-09-25T08:31:27;5.68;;;3.75;;
19735;SDS011;32064;49.310;8.646;2022-09-25T08:33:53;5.03;;;3.35;;
19735;SDS011;32064;49.310;8.646;2022-09-25T08:36:18;4.60;;;3.60;;
19735;SDS011;32064;49.310;8.646;2022-09-25T08:38:45;4.50;;;3.33;;
19735;SDS011;32064;49.310;8.646;2022-09-25T08:41:13;3.25;;;2.92;;
19735;SDS011;32064;49.310;8.646;2022-09-25T08:43:43;3.78;;;2.92;;
19735;SDS011;32064;49.310;8.646;2022-09-25T08:46:19;3.80;;;2.92;;
19735;SDS011;32064;49.310;8.646;2022-09-25T08:49:06;3.78;;;2.85;;
19735;SDS011;32064;49.310;8.646;2022-09-25T08:51:42;4.28;;;3.30;;
19735;SDS011;32064;49.310;8.646;2022-09-25T08:54:21;3.65;;;2.58;;
19735;SDS011;32064;49.310;8.646;2022-09-25T08:56:52;3.55;;;2.70;;
19735;SDS011;32064;49.310;8.646;2022-09-25T08:59:33;6.07;;;3.35;;
19735;SDS011;32064;49.310;8.646;2022-09-25T09:02:11;3.22;;;2.80;;
19735;SDS011;32064;49.310;8.646;2022-09-25T09:07:20;2.63;;;2.40;;
19735;SDS011;32064;49.310;8.646;2022-09-25T09:10:36;2.83;;;2.33;;
19735;SDS011;32064;49.310;8.646;2022-09-25T09:13:16;2.55;;;2.30;;
19735;SDS011;32064;49.310;8.646;2022-09-25T09:16:04;3.95;;;2.83;;
19735;SDS011;32064;49.310;8.646;2022-09-25T09:18:39;2.88;;;2.42;;
19735;SDS011;32064;49.310;8.646;2022-09-25T09:21:17;4.53;;;3.35;;
19735;SDS011;32064;49.310;8.646;2022-09-25T09:26:14;3.38;;;2.53;;
19735;SDS011;32064;49.310;8.646;2022-09-25T09:33:59;3.72;;;2.95;;
19735;SDS011;32064;49.310;8.646;2022-09-25T09:36:54;3.92;;;2.90;;
19735;SDS011;32064;49.310;8.646;2022-09-25T09:39:28;2.95;;;2.50;;
19735;SDS011;32064;49.310;8.646;2022-09-25T09:42:23;3.90;;;2.85;;
19735;SDS011;32064;49.310;8.646;2022-09-25T09:45:28;3.50;;;2.20;;
19735;SDS011;32064;49.310;8.646;2022-09-25T09:48:14;3.15;;;2.17;;
19735;SDS011;32064;49.310;8.646;2022-09-25T09:50:50;3.63;;;2.50;;
19735;SDS011;32064;49.310;8.646;2022-09-25T09:55:56;4.05;;;2.47;;
19735;SDS011;32064;49.310;8.646;2022-09-25T09:58:36;2.92;;;2.28;;
19735;SDS011;32064;49.310;8.646;2022-09-25T10:01:06;2.60;;;2.08;;
19735;SDS011;32064;49.310;8.646;2022-09-25T10:03:36;2.65;;;2.13;;
19735;SDS011;32064;49.310;8.646;2022-09-25T10:06:04;3.17;;;2.20;;
19735;SDS011;32064;49.310;8.646;2022-09-25T10:08:34;2.65;;;2.38;;
19735;SDS011;32064;49.310;8.646;2022-09-25T10:10:59;2.85;;;2.33;;
19735;SDS011;32064;49.310;8.646;2022-09-25T10:13:55;2.45;;;2.25;;
19735;SDS011;32064;49.310;8.646;2022-09-25T10:16:24;2.90;;;2.38;;
19735;SDS011;32064;49.310;8.646;2022-09-25T10:19:00;3.13;;;2.35;;
19735;SDS011;32064;49.310;8.646;2022-09-25T10:21:31;3.53;;;2.50;;
19735;SDS011;32064;49.310;8.646;2022-09-25T10:24:10;2.45;;;2.08;;
19735;SDS011;32064;49.310;8.646;2022-09-25T10:29:44;2.50;;;1.90;;
19735;SDS011;32064;49.310;8.646;2022-09-25T10:32:09;2.10;;;1.90;;
19735;SDS011;32064;49.310;8.646;2022-09-25T10:34:35;3.17;;;1.80;;
19735;SDS011;32064;49.310;8.646;2022-09-25T10:37:12;2.53;;;2.00;;
19735;SDS011;32064;49.310;8.646;2022-09-25T10:39:56;2.90;;;1.95;;
19735;SDS011;32064;49.310;8.646;2022-09-25T10:42:38;2.63;;;2.20;;
19735;SDS011;32064;49.310;8.646;2022-09-25T10:47:52;3.35;;;2.38;;
19735;SDS011;32064;49.310;8.646;2022-09-25T10:50:36;2.38;;;2.17;;
19735;SDS011;32064;49.310;8.646;2022-09-25T10:53:02;2.28;;;2.08;;
19735;SDS011;32064;49.310;8.646;2022-09-25T10:55:30;2.97;;;2.22;;
19735;SDS011;32064;49.310;8.646;2022-09-25T11:03:22;2.78;;;2.45;;
19735;SDS011;32064;49.310;8.646;2022-09-25T11:05:54;2.22;;;2.03;;
19735;SDS011;32064;49.310;8.646;2022-09-25T11:08:24;2.97;;;2.30;;
19735;SDS011;32064;49.310;8.646;2022-09-25T11:10:58;2.97;;;2.28;;
19735;SDS011;32064;49.310;8.646;2022-09-25T11:13:26;4.97;;;2.15;;
19735;SDS011;32064;49.310;8.646;2022-09-25T11:15:57;3.63;;;2.60;;
19735;SDS011;32064;49.310;8.646;2022-09-25T11:18:38;3.30;;;2.53;;
19735;SDS011;32064;49.310;8.646;2022-09-25T11:21:16;2.33;;;2.08;;
19735;SDS011;32064;49.310;8.646;2022-09-25T11:24:02;3.72;;;2.50;;
19735;SDS011;32064;49.310;8.646;2022-09-25T11:30:16;3.90;;;1.90;;
19735;SDS011;32064;49.310;8.646;2022-09-25T11:35:47;3.85;;;2.35;;
19735;SDS011;32064;49.310;8.646;2022-09-25T11:38:33;2.22;;;1.98;;
19735;SDS011;32064;49.310;8.646;2022-09-25T11:41:29;2.08;;;1.88;;
19735;SDS011;32064;49.310;8.646;2022-09-25T11:49:50;2.60;;;1.90;;
19735;SDS011;32064;49.310;8.646;2022-09-25T11:52:20;3.03;;;2.10;;
19735;SDS011;32064;49.310;8.646;2022-09-25T12:00:51;3.00;;;2.00;;
19735;SDS011;32064;49.310;8.646;2022-09-25T12:06:28;1.95;;;1.67;;
19735;SDS011;32064;49.310;8.646;2022-09-25T12:11:50;1.52;;;1.42;;
19735;SDS011;32064;49.310;8.646;2022-09-25T12:14:35;2.45;;;1.77;;
19735;SDS011;32064;49.310;8.646;2022-09-25T12:22:45;1.58;;;1.35;;
19735;SDS011;32064;49.310;8.646;2022-09-25T12:28:28;1.27;;;1.17;;
19735;SDS011;32064;49.310;8.646;2022-09-25T12:31:05;1.88;;;1.58;;
19735;SDS011;32064;49.310;8.646;2022-09-25T12:36:43;1.95;;;1.60;;
19735;SDS011;32064;49.310;8.646;2022-09-25T12:44:45;2.20;;;1.50;;
19735;SDS011;32064;49.310;8.646;2022-09-25T12:49:47;2.13;;;1.92;;
19735;SDS011;32064;49.310;8.646;2022-09-25T12:52:21;2.00;;;1.50;;
19735;SDS011;32064;49.310;8.646;2022-09-25T12:54:54;2.10;;;1.63;;
19735;SDS011;32064;49.310;8.646;2022-09-25T12:57:28;2.00;;;1.80;;
19735;SDS011;32064;49.310;8.646;2022-09-25T13:02:51;3.28;;;1.88;;
19735;SDS011;32064;49.310;8.646;2022-09-25T13:13:49;2.35;;;1.60;;
19735;SDS011;32064;49.310;8.646;2022-09-25T13:16:17;1.55;;;1.45;;
19735;SDS011;32064;49.310;8.646;2022-09-25T13:18:47;2.75;;;1.45;;
19735;SDS011;32064;49.310;8.646;2022-09-25T13:21:35;3.60;;;1.40;;
19735;SDS011;32064;49.310;8.646;2022-09-25T13:24:05;1.65;;;1.25;;
19735;SDS011;32064;49.310;8.646;2022-09-25T13:26:46;1.52;;;1.40;;
19735;SDS011;32064;49.310;8.646;2022-09-25T13:31:48;3.30;;;2.67;;
19735;SDS011;32064;49.310;8.646;2022-09-25T13:34:14;4.00;;;3.70;;
19735;SDS011;32064;49.310;8.646;2022-09-25T13:39:15;2.78;;;2.17;;
19735;SDS011;32064;49.310;8.646;2022-09-25T13:42:20;4.18;;;2.95;;
19735;SDS011;32064;49.310;8.646;2022-09-25T13:44:57;7.15;;;2.55;;
19735;SDS011;32064;49.310;8.646;2022-09-25T13:47:32;3.22;;;2.55;;
19735;SDS011;32064;49.310;8.646;2022-09-25T14:00:20;5.35;;;3.03;;
19735;SDS011;32064;49.310;8.646;2022-09-25T14:02:45;5.05;;;2.20;;
19735;SDS011;32064;49.310;8.646;2022-09-25T14:05:13;3.20;;;2.10;;
19735;SDS011;32064;49.310;8.646;2022-09-25T14:07:46;3.42;;;2.38;;
19735;SDS011;32064;49.310;8.646;2022-09-25T14:10:15;2.63;;;2.10;;
19735;SDS011;32064;49.310;8.646;2022-09-25T14:12:43;2.35;;;2.15;;
19735;SDS011;32064;49.310;8.646;2022-09-25T14:15:17;4.60;;;2.25;;
19735;SDS011;32064;49.310;8.646;2022-09-25T14:17:47;4.13;;;3.30;;
19735;SDS011;32064;49.310;8.646;2022-09-25T14:20:33;4.95;;;3.30;;
19735;SDS011;32064;49.310;8.646;2022-09-25T14:23:09;5.10;;;3.35;;
19735;SDS011;32064;49.310;8.646;2022-09-25T14:25:38;4.95;;;3.53;;
19735;SDS011;32064;49.310;8.646;2022-09-25T14:28:18;4.00;;;3.60;;
19735;SDS011;32064;49.310;8.646;2022-09-25T14:47:37;5.45;;;3.88;;
19735;SDS011;32064;49.310;8.646;2022-09-25T14:50:51;5.50;;;3.97;;
19735;SDS011;32064;49.310;8.646;2022-09-25T14:53:10;8.02;;;4.03;;
19735;SDS011;32064;49.310;8.646;2022-09-25T14:55:43;4.22;;;3.40;;
19735;SDS011;32064;49.310;8.646;2022-09-25T14:58:15;4.55;;;3.42;;
19735;SDS011;32064;49.310;8.646;2022-09-25T15:00:44;4.20;;;3.45;;
19735;SDS011;32064;49.310;8.646;2022-09-25T15:03:12;4.65;;;3.40;;
19735;SDS011;32064;49.310;8.646;2022-09-25T15:05:44;7.03;;;3.33;;
19735;SDS011;32064;49.310;8.646;2022-09-25T15:08:21;7.68;;;2.88;;
19735;SDS011;32064;49.310;8.646;2022-09-25T15:10:59;6.35;;;3.72;;
19735;SDS011;32064;49.310;8.646;2022-09-25T15:13:26;5.70;;;3.15;;
19735;SDS011;32064;49.310;8.646;2022-09-25T15:15:57;4.10;;;3.28;;
19735;SDS011;32064;49.310;8.646;2022-09-25T15:18:43;4.28;;;2.72;;
19735;SDS011;32064;49.310;8.646;2022-09-25T15:21:12;4.18;;;2.60;;
19735;SDS011;32064;49.310;8.646;2022-09-25T15:23:45;3.35;;;2.33;;
19735;SDS011;32064;49.310;8.646;2022-09-25T15:26:14;3.63;;;2.75;;
19735;SDS011;32064;49.310;8.646;2022-09-25T15:28:42;3.25;;;1.95;;
19735;SDS011;32064;49.310;8.646;2022-09-25T15:31:08;4.70;;;2.35;;
19735;SDS011;32064;49.310;8.646;2022-09-25T15:33:35;4.80;;;1.92;;
19735;SDS011;32064;49.310;8.646;2022-09-25T15:36:03;3.42;;;2.53;;
19735;SDS011;32064;49.310;8.646;2022-09-25T15:38:37;7.30;;;2.25;;
19735;SDS011;32064;49.310;8.646;2022-09-25T15:41:07;2.95;;;1.48;;
19735;SDS011;32064;49.310;8.646;2022-09-25T15:43:35;6.60;;;1.65;;
19735;SDS011;32064;49.310;8.646;2022-09-25T15:48:36;1.90;;;1.30;;
19735;SDS011;32064;49.310;8.646;2022-09-25T15:51:11;2.75;;;1.25;;
19735;SDS011;32064;49.310;8.646;2022-09-25T15:53:39;3.60;;;1.55;;
19735;SDS011;32064;49.310;8.646;2022-09-25T15:58:49;4.50;;;1.40;;
19735;SDS011;32064;49.310;8.646;2022-09-25T16:01:32;5.60;;;1.40;;
19735;SDS011;32064;49.310;8.646;2022-09-25T16:04:18;2.38;;;1.83;;
19735;SDS011;32064;49.310;8.646;2022-09-25T16:10:04;4.13;;;1.80;;
19735;SDS011;32064;49.310;8.646;2022-09-25T16:12:32;3.10;;;1.42;;
19735;SDS011;32064;49.310;8.646;2022-09-25T16:15:02;5.20;;;1.25;;
19735;SDS011;32064;49.310;8.646;2022-09-25T16:17:51;3.17;;;1.40;;
19735;SDS011;32064;49.310;8.646;2022-09-25T16:22:52;9.82;;;3.58;;
19735;SDS011;32064;49.310;8.646;2022-09-25T16:25:25;5.53;;;1.70;;
19735;SDS011;32064;49.310;8.646;2022-09-25T16:28:15;7.47;;;2.15;;
19735;SDS011;32064;49.310;8.646;2022-09-25T16:30:47;3.55;;;1.63;;
19735;SDS011;32064;49.310;8.646;2022-09-25T16:33:25;2.67;;;1.70;;
19735;SDS011;32064;49.310;8.646;2022-09-25T16:35:52;9.43;;;6.45;;
19735;SDS011;32064;49.310;8.646;2022-09-25T16:38:37;6.45;;;2.13;;
19735;SDS011;32064;49.310;8.646;2022-09-25T16:43:43;4.73;;;1.30;;
19735;SDS011;32064;49.310;8.646;2022-09-25T16:46:14;4.50;;;1.50;;
19735;SDS011;32064;49.310;8.646;2022-09-25T16:48:42;3.95;;;1.50;;
19735;SDS011;32064;49.310;8.646;2022-09-25T16:51:10;2.33;;;1.40;;
19735;SDS011;32064;49.310;8.646;2022-09-25T16:53:44;1.70;;;1.20;;
19735;SDS011;32064;49.310;8.646;2022-09-25T16:56:18;2.30;;;1.50;;
19735;SDS011;32064;49.310;8.646;2022-09-25T16:58:45;3.80;;;2.70;;
19735;SDS011;32064;49.310;8.646;2022-09-25T17:01:11;3.90;;;1.67;;
19735;SDS011;32064;49.310;8.646;2022-09-25T17:03:36;2.75;;;1.15;;
19735;SDS011;32064;49.310;8.646;2022-09-25T17:06:17;2.13;;;1.20;;
19735;SDS011;32064;49.310;8.646;2022-09-25T17:08:43;2.57;;;1.40;;
19735;SDS011;32064;49.310;8.646;2022-09-25T17:11:09;1.75;;;1.45;;
19735;SDS011;32064;49.310;8.646;2022-09-25T17:13:35;5.32;;;2.17;;
19735;SDS011;32064;49.310;8.646;2022-09-25T17:16:02;5.40;;;1.50;;
19735;SDS011;32064;49.310;8.646;2022-09-25T17:18:28;1.77;;;1.40;;
19735;SDS011;32064;49.310;8.646;2022-09-25T17:20:54;4.73;;;1.97;;
19735;SDS011;32064;49.310;8.646;2022-09-25T17:23:21;5.67;;;2.40;;
19735;SDS011;32064;49.310;8.646;2022-09-25T17:28:18;4.20;;;1.73;;
19735;SDS011;32064;49.310;8.646;2022-09-25T17:30:43;2.57;;;1.30;;
19735;SDS011;32064;49.310;8.646;2022-09-25T17:33:13;2.23;;;1.30;;
19735;SDS011;32064;49.310;8.646;2022-09-25T17:36:00;2.97;;;2.13;;
19735;SDS011;32064;49.310;8.646;2022-09-25T17:38:30;3.17;;;1.20;;
19735;SDS011;32064;49.310;8.646;2022-09-25T17:41:01;5.10;;;3.90;;
19735;SDS011;32064;49.310;8.646;2022-09-25T17:43:29;4.93;;;2.10;;
19735;SDS011;32064;49.310;8.646;2022-09-25T17:45:55;5.33;;;2.10;;
19735;SDS011;32064;49.310;8.646;2022-09-25T17:48:25;5.50;;;1.92;;